sensor_id;sensor_type;location;lat;lon;timestamp;pressure;altitude;pressure_sealevel;temperature;humidity
76095;BME280;64821;13.710;100.604;2023-03-01T20:01:18;101270.63;;;34.76;36.17
76095;BME280;64821;13.710;100.604;2023-03-01T20:02:23;101264.94;;;34.72;35.44
76095;BME280;64821;13.710;100.604;2023-03-01T20:03:27;101272.38;;;34.72;35.52
76095;BME280;64821;13.710;100.604;2023-03-01T20:04:32;101275.13;;;34.72;35.41
76095;BME280;64821;13.710;100.604;2023-03-01T20:05:36;101265.25;;;34.71;35.16
76095;BME280;64821;13.710;100.604;2023-03-01T20:06:40;101268.81;;;34.71;35.10
76095;BME280;64821;13.710;100.604;2023-03-01T20:07:43;101269.94;;;34.70;35.41
76095;BME280;64821;13.710;100.604;2023-03-01T20:08:47;101268.31;;;34.69;35.61
76095;BME280;64821;13.710;100.604;2023-03-01T20:09:51;101268.31;;;34.69;35.50
76095;BME280;64821;13.710;100.604;2023-03-01T20:11:01;101265.25;;;34.71;36.29
76095;BME280;64821;13.710;100.604;2023-03-01T20:12:05;101265.75;;;34.73;35.66
76095;BME280;64821;13.710;100.604;2023-03-01T20:13:08;101261.38;;;34.72;35.84
76095;BME280;64821;13.710;100.604;2023-03-01T20:14:12;101264.94;;;34.72;35.98
76095;BME280;64821;13.710;100.604;2023-03-01T20:15:16;101264.94;;;34.72;36.02
76095;BME280;64821;13.710;100.604;2023-03-01T20:16:21;101264.13;;;34.72;36.20
76095;BME280;64821;13.710;100.604;2023-03-01T20:17:25;101262.50;;;34.71;35.66
76095;BME280;64821;13.710;100.604;2023-03-01T20:18:29;101266.06;;;34.71;36.34
76095;BME280;64821;13.710;100.604;2023-03-01T20:19:33;101256.19;;;34.70;36.42
76095;BME280;64821;13.710;100.604;2023-03-01T20:20:36;101260.56;;;34.71;35.65
76095;BME280;64821;13.710;100.604;2023-03-01T20:21:40;101257.00;;;34.71;36.09
76095;BME280;64821;13.710;100.604;2023-03-01T20:22:44;101251.97;;;34.73;36.15
76095;BME280;64821;13.710;100.604;2023-03-01T20:23:47;101261.84;;;34.74;36.30
76095;BME280;64821;13.710;100.604;2023-03-01T20:24:51;101257.81;;;34.71;35.75
76095;BME280;64821;13.710;100.604;2023-03-01T20:26:02;101251.97;;;34.73;36.56
76095;BME280;64821;13.710;100.604;2023-03-01T20:27:06;101260.25;;;34.73;36.45
76095;BME280;64821;13.710;100.604;2023-03-01T20:28:09;101265.75;;;34.73;36.15
76095;BME280;64821;13.710;100.604;2023-03-01T20:29:13;101260.25;;;34.73;36.11
76095;BME280;64821;13.710;100.604;2023-03-01T20:30:17;101258.63;;;34.72;35.55
76095;BME280;64821;13.710;100.604;2023-03-01T20:31:23;101264.13;;;34.72;36.83
76095;BME280;64821;13.710;100.604;2023-03-01T20:32:27;101266.06;;;34.71;36.07
76095;BME280;64821;13.710;100.604;2023-03-01T20:33:31;101258.00;;;34.66;36.42
76095;BME280;64821;13.710;100.604;2023-03-01T20:34:36;101265.25;;;34.71;36.38
76095;BME280;64821;13.710;100.604;2023-03-01T20:35:42;101262.81;;;34.69;36.41
76095;BME280;64821;13.710;100.604;2023-03-01T20:36:46;101266.06;;;34.71;35.69
76095;BME280;64821;13.710;100.604;2023-03-01T20:37:51;101263.63;;;34.70;36.06
76095;BME280;64821;13.710;100.604;2023-03-01T20:38:55;101261.19;;;34.68;36.20
76095;BME280;64821;13.710;100.604;2023-03-01T20:39:58;101268.00;;;34.71;36.10
76095;BME280;64821;13.710;100.604;2023-03-01T20:41:05;101262.50;;;34.71;36.33
76095;BME280;64821;13.710;100.604;2023-03-01T20:42:10;101254.56;;;34.69;35.60
76095;BME280;64821;13.710;100.604;2023-03-01T20:43:13;101260.88;;;34.70;36.00
76095;BME280;64821;13.710;100.604;2023-03-01T20:44:17;101196.31;;;34.33;35.57
76095;BME280;64821;13.710;100.604;2023-03-01T20:45:21;101255.53;;;34.73;35.98
76095;BME280;64821;13.710;100.604;2023-03-01T20:46:26;101255.38;;;34.70;36.05
76095;BME280;64821;13.710;100.604;2023-03-01T20:47:30;101262.50;;;34.71;35.85
76095;BME280;64821;13.710;100.604;2023-03-01T20:48:34;101252.00;;;34.64;36.36
76095;BME280;64821;13.710;100.604;2023-03-01T20:49:38;101263.13;;;34.68;35.85
76095;BME280;64821;13.710;100.604;2023-03-01T20:50:41;101266.56;;;34.65;36.51
76095;BME280;64821;13.710;100.604;2023-03-01T20:51:45;101265.56;;;34.61;36.22
76095;BME280;64821;13.710;100.604;2023-03-01T20:52:49;101259.44;;;34.55;36.40
76095;BME280;64821;13.710;100.604;2023-03-01T20:53:52;101263.31;;;34.54;36.27
76095;BME280;64821;13.710;100.604;2023-03-01T20:54:56;101263.66;;;34.52;36.65
76095;BME280;64821;13.710;100.604;2023-03-01T20:56:01;101264.78;;;34.51;36.73
76095;BME280;64821;13.710;100.604;2023-03-01T20:57:05;101258.47;;;34.51;36.01
76095;BME280;64821;13.710;100.604;2023-03-01T20:58:09;101266.41;;;34.52;36.45
76095;BME280;64821;13.710;100.604;2023-03-01T20:59:12;101267.53;;;34.51;36.21
76095;BME280;64821;13.710;100.604;2023-03-01T21:00:17;101260.88;;;34.52;36.51
76095;BME280;64821;13.710;100.604;2023-03-01T21:01:20;101258.94;;;34.53;36.56
76095;BME280;64821;13.710;100.604;2023-03-01T21:02:26;101263.66;;;34.52;36.31
76095;BME280;64821;13.710;100.604;2023-03-01T21:03:30;101263.31;;;34.54;36.34
76095;BME280;64821;13.710;100.604;2023-03-01T21:04:34;101261.38;;;34.55;36.45
76095;BME280;64821;13.710;100.604;2023-03-01T21:05:37;101258.63;;;34.55;36.52
76095;BME280;64821;13.710;100.604;2023-03-01T21:06:41;101252.31;;;34.54;36.41
76095;BME280;64821;13.710;100.604;2023-03-01T21:07:45;101253.75;;;34.51;37.07
76095;BME280;64821;13.710;100.604;2023-03-01T21:08:48;101259.13;;;34.57;36.42
76095;BME280;64821;13.710;100.604;2023-03-01T21:09:52;101258.31;;;34.56;36.32
76095;BME280;64821;13.710;100.604;2023-03-01T21:10:56;101256.38;;;34.57;36.87
76095;BME280;64821;13.710;100.604;2023-03-01T21:12:00;101250.88;;;34.57;37.35
76095;BME280;64821;13.710;100.604;2023-03-01T21:13:04;101260.72;;;34.58;37.18
76095;BME280;64821;13.710;100.604;2023-03-01T21:14:08;101242.75;;;34.51;37.21
76095;BME280;64821;13.710;100.604;2023-03-01T21:15:12;101255.22;;;34.58;37.20
76095;BME280;64821;13.710;100.604;2023-03-01T21:16:30;101258.78;;;34.58;37.30
76095;BME280;64821;13.710;100.604;2023-03-01T21:17:36;101256.38;;;34.57;36.98
76095;BME280;64821;13.710;100.604;2023-03-01T21:18:40;101253.13;;;34.55;36.59
76095;BME280;64821;13.710;100.604;2023-03-01T21:19:44;101250.38;;;34.55;37.16
76095;BME280;64821;13.710;100.604;2023-03-01T21:20:48;101254.25;;;34.53;36.82
76095;BME280;64821;13.710;100.604;2023-03-01T21:21:52;101255.88;;;34.55;37.60
76095;BME280;64821;13.710;100.604;2023-03-01T21:22:55;101248.44;;;34.55;37.01
76095;BME280;64821;13.710;100.604;2023-03-01T21:23:59;101252.31;;;34.54;37.42
76095;BME280;64821;13.710;100.604;2023-03-01T21:25:03;101250.22;;;34.51;37.27
76095;BME280;64821;13.710;100.604;2023-03-01T21:26:08;101253.13;;;34.55;37.50
76095;BME280;64821;13.710;100.604;2023-03-01T21:27:12;101249.56;;;34.54;37.53
76095;BME280;64821;13.710;100.604;2023-03-01T21:28:16;101253.94;;;34.55;37.25
76095;BME280;64821;13.710;100.604;2023-03-01T21:29:19;101252.16;;;34.50;37.09
76095;BME280;64821;13.710;100.604;2023-03-01T21:30:23;101255.56;;;34.56;37.24
76095;BME280;64821;13.710;100.604;2023-03-01T21:31:28;101253.63;;;34.57;37.01
76095;BME280;64821;13.710;100.604;2023-03-01T21:32:32;101263.81;;;34.56;37.39
76095;BME280;64821;13.710;100.604;2023-03-01T21:33:38;101259.44;;;34.55;37.50
76095;BME280;64821;13.710;100.604;2023-03-01T21:34:44;101261.38;;;34.55;37.16
76095;BME280;64821;13.710;100.604;2023-03-01T21:35:48;101255.38;;;34.52;36.87
76095;BME280;64821;13.710;100.604;2023-03-01T21:36:52;101252.31;;;34.45;37.27
76095;BME280;64821;13.710;100.604;2023-03-01T21:37:55;101232.72;;;34.38;37.44
76095;BME280;64821;13.710;100.604;2023-03-01T21:38:59;101262.34;;;34.50;36.94
76095;BME280;64821;13.710;100.604;2023-03-01T21:40:04;101266.22;;;34.49;37.43
76095;BME280;64821;13.710;100.604;2023-03-01T21:41:10;101263.78;;;34.47;37.46
76095;BME280;64821;13.710;100.604;2023-03-01T21:42:14;101252.78;;;34.47;37.46
76095;BME280;64821;13.710;100.604;2023-03-01T21:43:17;101260.25;;;34.47;37.07
76095;BME280;64821;13.710;100.604;2023-03-01T21:44:21;101264.44;;;34.44;36.98
76095;BME280;64821;13.710;100.604;2023-03-01T21:45:25;101264.78;;;34.43;37.06
76095;BME280;64821;13.710;100.604;2023-03-01T21:46:30;101260.72;;;34.40;37.57
76095;BME280;64821;13.710;100.604;2023-03-01T21:47:35;101269.28;;;34.39;37.45
76095;BME280;64821;13.710;100.604;2023-03-01T21:48:41;101266.53;;;34.39;37.65
76095;BME280;64821;13.710;100.604;2023-03-01T21:49:46;101267.34;;;34.39;37.60
76095;BME280;64821;13.710;100.604;2023-03-01T21:50:54;101262.16;;;34.38;37.84
76095;BME280;64821;13.710;100.604;2023-03-01T21:51:58;101269.28;;;34.39;36.96
76095;BME280;64821;13.710;100.604;2023-03-01T21:53:01;101260.56;;;34.37;37.47
76095;BME280;64821;13.710;100.604;2023-03-01T21:54:05;101269.63;;;34.37;37.15
76095;BME280;64821;13.710;100.604;2023-03-01T21:55:09;101265.72;;;34.38;37.50
76095;BME280;64821;13.710;100.604;2023-03-01T21:56:16;101264.91;;;34.38;37.46
76095;BME280;64821;13.710;100.604;2023-03-01T21:57:20;101268.81;;;34.37;37.50
76095;BME280;64821;13.710;100.604;2023-03-01T21:58:24;101271.09;;;34.35;37.56
76095;BME280;64821;13.710;100.604;2023-03-01T21:59:28;101268.97;;;34.32;37.29
76095;BME280;64821;13.710;100.604;2023-03-01T22:00:32;101275.59;;;34.31;37.22
76095;BME280;64821;13.710;100.604;2023-03-01T22:01:36;101271.53;;;34.28;37.49
76095;BME280;64821;13.710;100.604;2023-03-01T22:02:39;101274.16;;;34.25;37.29
76095;BME280;64821;13.710;100.604;2023-03-01T22:03:45;101261.78;;;34.13;37.97
76095;BME280;64821;13.710;100.604;2023-03-01T22:04:51;101276.06;;;34.24;37.53
76095;BME280;64821;13.710;100.604;2023-03-01T22:05:56;101272.50;;;34.24;37.52
76095;BME280;64821;13.710;100.604;2023-03-01T22:07:00;101257.44;;;34.12;37.55
76095;BME280;64821;13.710;100.604;2023-03-01T22:08:04;101279.66;;;34.25;37.67
76095;BME280;64821;13.710;100.604;2023-03-01T22:09:10;101282.06;;;34.26;37.64
76095;BME280;64821;13.710;100.604;2023-03-01T22:10:15;101269.44;;;34.25;37.84
76095;BME280;64821;13.710;100.604;2023-03-01T22:11:19;101292.75;;;34.28;38.19
76095;BME280;64821;13.710;100.604;2023-03-01T22:12:23;101290.00;;;34.28;37.49
76095;BME280;64821;13.710;100.604;2023-03-01T22:13:27;101287.25;;;34.28;37.83
76095;BME280;64821;13.710;100.604;2023-03-01T22:14:31;101284.50;;;34.28;38.12
76095;BME280;64821;13.710;100.604;2023-03-01T22:15:39;101273.94;;;34.21;38.45
76095;BME280;64821;13.710;100.604;2023-03-01T22:16:43;101291.94;;;34.27;38.28
76095;BME280;64821;13.710;100.604;2023-03-01T22:17:47;101271.34;;;34.16;37.97
76095;BME280;64821;13.710;100.604;2023-03-01T22:18:53;101287.72;;;34.30;38.09
76095;BME280;64821;13.710;100.604;2023-03-01T22:19:56;101289.66;;;34.29;37.51
76095;BME280;64821;13.710;100.604;2023-03-01T22:21:03;101296.78;;;34.30;38.44
76095;BME280;64821;13.710;100.604;2023-03-01T22:22:07;101286.44;;;34.27;37.72
76095;BME280;64821;13.710;100.604;2023-03-01T22:23:11;101297.59;;;34.31;37.52
76095;BME280;64821;13.710;100.604;2023-03-01T22:24:15;101296.47;;;34.32;38.36
76095;BME280;64821;13.710;100.604;2023-03-01T22:25:27;101296.66;;;34.35;38.21
76095;BME280;64821;13.710;100.604;2023-03-01T22:26:32;101295.84;;;34.35;37.83
76095;BME280;64821;13.710;100.604;2023-03-01T22:27:37;101295.03;;;34.34;37.99
76095;BME280;64821;13.710;100.604;2023-03-01T22:28:41;101295.84;;;34.35;37.48
76095;BME280;64821;13.710;100.604;2023-03-01T22:29:47;101292.59;;;34.33;38.20
76095;BME280;64821;13.710;100.604;2023-03-01T22:30:50;101303.78;;;34.36;37.78
76095;BME280;64821;13.710;100.604;2023-03-01T22:31:55;101307.34;;;34.37;37.77
76095;BME280;64821;13.710;100.604;2023-03-01T22:32:59;101309.59;;;34.35;37.16
76095;BME280;64821;13.710;100.604;2023-03-01T22:34:05;101306.53;;;34.36;38.44
76095;BME280;64821;13.710;100.604;2023-03-01T22:35:09;101298.28;;;34.36;37.52
76095;BME280;64821;13.710;100.604;2023-03-01T22:36:13;101303.78;;;34.36;38.01
76095;BME280;64821;13.710;100.604;2023-03-01T22:37:16;101310.91;;;34.37;37.96
76095;BME280;64821;13.710;100.604;2023-03-01T22:38:20;101309.28;;;34.36;38.08
76095;BME280;64821;13.710;100.604;2023-03-01T22:39:24;101308.47;;;34.36;38.01
76095;BME280;64821;13.710;100.604;2023-03-01T22:40:28;101304.91;;;34.35;37.90
76095;BME280;64821;13.710;100.604;2023-03-01T22:41:33;101310.41;;;34.35;37.55
76095;BME280;64821;13.710;100.604;2023-03-01T22:42:41;101307.47;;;34.32;37.46
76095;BME280;64821;13.710;100.604;2023-03-01T22:43:45;101312.34;;;34.35;37.93
76095;BME280;64821;13.710;100.604;2023-03-01T22:44:48;101312.84;;;34.37;37.37
76095;BME280;64821;13.710;100.604;2023-03-01T22:45:52;101311.22;;;34.36;37.54
76095;BME280;64821;13.710;100.604;2023-03-01T22:46:55;101316.53;;;34.32;37.46
76095;BME280;64821;13.710;100.604;2023-03-01T22:47:59;101308.47;;;34.36;37.86
76095;BME280;64821;13.710;100.604;2023-03-01T22:49:04;101318.66;;;34.35;37.91
76095;BME280;64821;13.710;100.604;2023-03-01T22:50:12;101312.50;;;34.38;38.19
76095;BME280;64821;13.710;100.604;2023-03-01T22:51:19;101330.16;;;34.37;38.32
76095;BME280;64821;13.710;100.604;2023-03-01T22:52:23;101313.16;;;34.35;37.68
76095;BME280;64821;13.710;100.604;2023-03-01T22:53:26;101330.16;;;34.37;37.52
76095;BME280;64821;13.710;100.604;2023-03-01T22:54:30;101331.28;;;34.36;37.84
76095;BME280;64821;13.710;100.604;2023-03-01T22:55:33;101325.28;;;34.34;38.01
76095;BME280;64821;13.710;100.604;2023-03-01T22:56:38;101340.16;;;34.33;37.61
76095;BME280;64821;13.710;100.604;2023-03-01T22:57:42;101329.97;;;34.34;37.88
76095;BME280;64821;13.710;100.604;2023-03-01T22:58:45;101333.03;;;34.32;37.25
76095;BME280;64821;13.710;100.604;2023-03-01T22:59:49;101333.84;;;34.33;37.51
76095;BME280;64821;13.710;100.604;2023-03-01T23:00:53;101334.34;;;34.35;37.90
76095;BME280;64821;13.710;100.604;2023-03-01T23:01:56;101346.47;;;34.34;37.48
76095;BME280;64821;13.710;100.604;2023-03-01T23:03:00;101346.16;;;34.35;38.01
76095;BME280;64821;13.710;100.604;2023-03-01T23:04:06;101341.78;;;34.34;37.90
76095;BME280;64821;13.710;100.604;2023-03-01T23:05:10;101340.97;;;34.34;37.42
76095;BME280;64821;13.710;100.604;2023-03-01T23:06:15;101348.41;;;34.33;38.01
76095;BME280;64821;13.710;100.604;2023-03-01T23:07:19;101346.47;;;34.34;37.33
76095;BME280;64821;13.710;100.604;2023-03-01T23:08:23;101345.16;;;34.31;38.10
76095;BME280;64821;13.710;100.604;2023-03-01T23:09:28;101345.16;;;34.31;37.70
76095;BME280;64821;13.710;100.604;2023-03-01T23:10:33;101353.41;;;34.31;37.69
76095;BME280;64821;13.710;100.604;2023-03-01T23:11:36;101355.34;;;34.31;37.91
76095;BME280;64821;13.710;100.604;2023-03-01T23:12:40;101329.56;;;34.18;38.24
76095;BME280;64821;13.710;100.604;2023-03-01T23:13:44;101352.91;;;34.29;37.94
76095;BME280;64821;13.710;100.604;2023-03-01T23:14:48;101354.84;;;34.29;37.86
76095;BME280;64821;13.710;100.604;2023-03-01T23:15:53;101368.97;;;34.27;38.54
76095;BME280;64821;13.710;100.604;2023-03-01T23:16:56;101367.03;;;34.28;38.40
76095;BME280;64821;13.710;100.604;2023-03-01T23:18:00;101357.75;;;34.24;38.00
76095;BME280;64821;13.710;100.604;2023-03-01T23:19:05;101364.91;;;34.25;38.03
76095;BME280;64821;13.710;100.604;2023-03-01T23:20:10;101369.28;;;34.26;38.25
76095;BME280;64821;13.710;100.604;2023-03-01T23:21:15;101367.34;;;34.26;38.06
76095;BME280;64821;13.710;100.604;2023-03-01T23:22:20;101374.47;;;34.27;38.02
76095;BME280;64821;13.710;100.604;2023-03-01T23:23:23;101369.78;;;34.28;37.50
76095;BME280;64821;13.710;100.604;2023-03-01T23:24:27;101377.69;;;34.29;37.63
76095;BME280;64821;13.710;100.604;2023-03-01T23:25:31;101366.31;;;34.22;37.60
76095;BME280;64821;13.710;100.604;2023-03-01T23:26:34;101377.22;;;34.27;38.20
76095;BME280;64821;13.710;100.604;2023-03-01T23:27:38;101379.97;;;34.27;37.71
76095;BME280;64821;13.710;100.604;2023-03-01T23:28:42;101384.78;;;34.30;37.86
76095;BME280;64821;13.710;100.604;2023-03-01T23:29:46;101391.44;;;34.29;37.71
76095;BME280;64821;13.710;100.604;2023-03-01T23:30:56;101361.41;;;34.10;38.05
76095;BME280;64821;13.710;100.604;2023-03-01T23:32:01;101387.88;;;34.29;37.72
76095;BME280;64821;13.710;100.604;2023-03-01T23:33:04;101398.06;;;34.28;37.74
76095;BME280;64821;13.710;100.604;2023-03-01T23:34:10;101385.47;;;34.27;37.59
76095;BME280;64821;13.710;100.604;2023-03-01T23:35:13;101390.97;;;34.27;37.65
76095;BME280;64821;13.710;100.604;2023-03-01T23:36:19;101397.28;;;34.28;37.45
76095;BME280;64821;13.710;100.604;2023-03-01T23:37:28;101391.28;;;34.26;37.58
76095;BME280;64821;13.710;100.604;2023-03-01T23:38:32;101400.66;;;34.25;37.97
76095;BME280;64821;13.710;100.604;2023-03-01T23:39:36;101403.09;;;34.26;37.77
76095;BME280;64821;13.710;100.604;2023-03-01T23:40:40;101397.91;;;34.25;37.87
76095;BME280;64821;13.710;100.604;2023-03-01T23:41:44;101409.72;;;34.25;37.98
76095;BME280;64821;13.710;100.604;2023-03-01T23:42:48;101396.25;;;34.24;38.23
76095;BME280;64821;13.710;100.604;2023-03-01T23:43:53;101406.16;;;34.25;37.58
76095;BME280;64821;13.710;100.604;2023-03-01T23:44:56;101409.72;;;34.25;38.05
76095;BME280;64821;13.710;100.604;2023-03-01T23:46:00;101400.13;;;34.23;37.48
76095;BME280;64821;13.710;100.604;2023-03-01T23:47:04;101411.94;;;34.23;37.30
76095;BME280;64821;13.710;100.604;2023-03-01T23:48:09;101408.91;;;34.25;37.81
76095;BME280;64821;13.710;100.604;2023-03-01T23:49:16;101415.22;;;34.25;38.07
76095;BME280;64821;13.710;100.604;2023-03-01T23:50:20;101419.91;;;34.25;38.02
76095;BME280;64821;13.710;100.604;2023-03-01T23:51:26;101413.56;;;34.24;37.52
76095;BME280;64821;13.710;100.604;2023-03-01T23:52:31;101414.69;;;34.23;38.22
76095;BME280;64821;13.710;100.604;2023-03-01T23:53:40;101422.66;;;34.25;37.56
76095;BME280;64821;13.710;100.604;2023-03-01T23:54:44;101397.03;;;34.15;37.42
76095;BME280;64821;13.710;100.604;2023-03-01T23:55:49;101421.22;;;34.27;37.98
76095;BME280;64821;13.710;100.604;2023-03-01T23:56:53;101422.03;;;34.28;37.44
76095;BME280;64821;13.710;100.604;2023-03-01T23:57:57;101421.22;;;34.27;37.71
76095;BME280;64821;13.710;100.604;2023-03-01T23:59:02;101429.47;;;34.27;37.63
